Time,TemperatureF,DewpointF,PressureIn,WindDirection,WindDirectionDegrees,WindSpeedMPH,WindSpeedGustMPH,Humidity,HourlyPrecipIn,Conditions,Clouds,dailyrainin,SoftwareType,DateUTC
2013-04-04 00:00:00,36.0,15.6,30.21,WNW,293,10.5,15.2,43,0.00,,,0.00,WUHU216HW,2013-04-04 04:00:00,
2013-04-04 00:05:00,36.0,16.7,30.21,West,270,9.8,15.2,45,0.00,,,0.00,WUHU216HW,2013-04-04 04:05:00,
2013-04-04 00:10:00,35.8,15.4,30.21,NW,315,10.7,13.6,43,0.00,,,0.00,WUHU216HW,2013-04-04 04:10:00,
2013-04-04 00:15:00,35.8,14.9,30.21,WNW,293,6.3,13.6,42,0.00,,,0.00,WUHU216HW,2013-04-04 04:15:00,
2013-04-04 00:20:00,35.6,15.2,30.21,West,270,7.4,11.9,43,0.00,,,0.00,WUHU216HW,2013-04-04 04:20:00,
2013-04-04 00:25:00,35.6,14.2,30.21,West,270,13.0,13.0,41,0.00,,,0.00,WUHU216HW,2013-04-04 04:25:00,
2013-04-04 00:30:00,35.8,14.9,30.21,WNW,293,9.6,13.0,42,0.00,,,0.00,WUHU216HW,2013-04-04 04:30:00,
2013-04-04 00:35:00,35.6,14.8,30.21,NW,315,4.3,10.3,42,0.00,,,0.00,WUHU216HW,2013-04-04 04:35:00,
2013-04-04 00:40:00,35.6,14.2,30.21,West,270,4.5,9.2,41,0.00,,,0.00,WUHU216HW,2013-04-04 04:40:00,
2013-04-04 00:45:00,35.6,14.2,30.21,West,270,7.4,9.2,41,0.00,,,0.00,WUHU216HW,2013-04-04 04:45:00,
2013-04-04 00:50:00,35.6,14.2,30.21,West,270,5.6,9.8,41,0.00,,,0.00,WUHU216HW,2013-04-04 04:50:00,
2013-04-04 00:55:00,35.8,14.9,30.21,WSW,248,12.8,12.8,42,0.00,,,0.00,WUHU216HW,2013-04-04 04:55:00,
2013-04-04 01:00:00,36.0,15.0,30.21,WSW,248,11.9,19.2,42,0.00,,,0.00,WUHU216HW,2013-04-04 05:00:00,
2013-04-04 01:05:00,36.0,14.5,30.21,West,270,15.9,19.2,41,0.00,,,0.00,WUHU216HW,2013-04-04 05:05:00,
2013-04-04 01:10:00,36.0,14.5,30.21,WSW,248,15.2,16.6,41,0.00,,,0.00,WUHU216HW,2013-04-04 05:10:00,
2013-04-04 01:15:00,36.0,14.5,30.21,WNW,293,12.3,16.6,41,0.00,,,0.00,WUHU216HW,2013-04-04 05:15:00,
2013-04-04 01:20:00,36.0,14.5,30.21,West,270,16.6,16.6,41,0.00,,,0.00,WUHU216HW,2013-04-04 05:20:00,
2013-04-04 01:25:00,36.0,14.1,30.21,West,270,20.1,20.1,40,0.00,,,0.00,WUHU216HW,2013-04-04 05:25:00,
2013-04-04 01:30:00,35.8,14.9,30.21,West,270,20.8,20.8,42,0.00,,,0.00,WUHU216HW,2013-04-04 05:30:00,
2013-04-04 01:35:00,35.8,15.4,30.20,West,270,20.6,20.8,43,0.00,,,0.00,WUHU216HW,2013-04-04 05:35:00,
2013-04-04 01:40:00,35.8,14.9,30.20,West,270,25.1,25.1,42,0.00,,,0.00,WUHU216HW,2013-04-04 05:40:00,
2013-04-04 01:45:00,35.8,15.4,30.21,WSW,248,18.3,25.1,43,0.00,,,0.00,WUHU216HW,2013-04-04 05:45:00,
2013-04-04 01:50:00,35.6,14.2,30.21,WSW,248,14.3,21.5,41,0.00,,,0.00,WUHU216HW,2013-04-04 05:50:00,
2013-04-04 01:55:00,35.6,15.2,30.21,West,270,17.2,19.7,43,0.00,,,0.00,WUHU216HW,2013-04-04 05:55:00,
2013-04-04 02:00:00,35.6,15.2,30.21,West,270,16.6,20.4,43,0.00,,,0.00,WUHU216HW,2013-04-04 06:00:00,
2013-04-04 02:05:00,35.6,15.8,30.22,West,270,17.2,20.4,44,0.00,,,0.00,WUHU216HW,2013-04-04 06:05:00,
2013-04-04 02:10:00,35.6,15.2,30.21,WSW,248,21.5,22.4,43,0.00,,,0.00,WUHU216HW,2013-04-04 06:10:00,
2013-04-04 02:15:00,35.6,15.2,30.21,West,270,15.0,22.4,43,0.00,,,0.00,WUHU216HW,2013-04-04 06:15:00,
2013-04-04 02:20:00,35.5,15.6,30.21,West,270,15.7,20.1,44,0.00,,,0.00,WUHU216HW,2013-04-04 06:20:00,
2013-04-04 02:25:00,35.5,14.6,30.21,West,270,15.7,19.9,42,0.00,,,0.00,WUHU216HW,2013-04-04 06:25:00,
2013-04-04 02:30:00,35.3,15.4,30.21,WSW,248,12.1,19.9,44,0.00,,,0.00,WUHU216HW,2013-04-04 06:30:00,
2013-04-04 02:35:00,35.3,16.5,30.21,West,270,20.8,20.8,46,0.00,,,0.00,WUHU216HW,2013-04-04 06:35:00,
2013-04-04 02:40:00,35.3,15.9,30.21,West,270,17.2,20.8,45,0.00,,,0.00,WUHU216HW,2013-04-04 06:40:00,
2013-04-04 02:45:00,35.1,14.8,30.20,West,270,15.7,18.6,43,0.00,,,0.00,WUHU216HW,2013-04-04 06:45:00,
2013-04-04 02:50:00,35.1,15.8,30.20,West,270,15.7,17.9,45,0.00,,,0.00,WUHU216HW,2013-04-04 06:50:00,
2013-04-04 02:55:00,35.1,15.8,30.21,West,270,17.2,19.2,45,0.00,,,0.00,WUHU216HW,2013-04-04 06:55:00,
2013-04-04 03:00:00,34.9,15.6,30.20,West,270,14.3,19.2,45,0.00,,,0.00,WUHU216HW,2013-04-04 07:00:00,
2013-04-04 03:05:00,34.9,16.1,30.21,West,270,13.6,17.2,46,0.00,,,0.00,WUHU216HW,2013-04-04 07:05:00,
2013-04-04 03:10:00,34.7,15.4,30.21,West,270,10.5,15.0,45,0.00,,,0.00,WUHU216HW,2013-04-04 07:10:00,
2013-04-04 03:17:00,34.7,15.4,30.21,West,270,10.5,13.6,45,0.00,,,0.00,WUHU216HW,2013-04-04 07:17:00,
2013-04-04 03:22:00,34.6,15.8,30.21,WSW,248,8.3,13.0,46,0.00,,,0.00,WUHU216HW,2013-04-04 07:22:00,
2013-04-04 03:27:00,34.6,15.3,30.21,WSW,248,9.8,11.9,45,0.00,,,0.00,WUHU216HW,2013-04-04 07:27:00,
2013-04-04 03:32:00,34.6,15.8,30.21,WSW,248,8.9,9.8,46,0.00,,,0.00,WUHU216HW,2013-04-04 07:32:00,
2013-04-04 03:37:00,34.4,14.0,30.22,WSW,248,8.3,9.8,43,0.00,,,0.00,WUHU216HW,2013-04-04 07:37:00,
2013-04-04 03:42:00,34.4,15.1,30.22,WSW,248,10.1,10.1,45,0.00,,,0.00,WUHU216HW,2013-04-04 07:42:00,
2013-04-04 03:47:00,34.4,15.1,30.22,WSW,248,9.8,10.1,45,0.00,,,0.00,WUHU216HW,2013-04-04 07:47:00,
2013-04-04 03:52:00,34.2,15.0,30.21,WSW,248,7.2,9.8,45,0.00,,,0.00,WUHU216HW,2013-04-04 07:52:00,
2013-04-04 03:57:00,34.2,15.0,30.22,West,270,10.1,10.5,45,0.00,,,0.00,WUHU216HW,2013-04-04 07:57:00,
2013-04-04 04:02:00,34.2,15.9,30.22,WSW,248,8.1,10.7,47,0.00,,,0.00,WUHU216HW,2013-04-04 08:02:00,
2013-04-04 04:07:00,34.2,15.0,30.22,West,270,7.8,10.7,45,0.00,,,0.00,WUHU216HW,2013-04-04 08:07:00,
2013-04-04 04:12:00,34.2,15.0,30.22,West,270,7.6,8.9,45,0.00,,,0.00,WUHU216HW,2013-04-04 08:12:00,
2013-04-04 04:17:00,34.2,15.4,30.22,West,270,8.9,10.3,46,0.00,,,0.00,WUHU216HW,2013-04-04 08:17:00,
2013-04-04 04:22:00,34.2,15.4,30.22,West,270,9.8,10.3,46,0.00,,,0.00,WUHU216HW,2013-04-04 08:22:00,
2013-04-04 04:27:00,34.2,15.0,30.22,West,270,8.3,10.1,45,0.00,,,0.00,WUHU216HW,2013-04-04 08:27:00,
2013-04-04 04:32:00,34.2,14.0,30.22,West,270,9.8,9.8,43,0.00,,,0.00,WUHU216HW,2013-04-04 08:32:00,
2013-04-04 04:37:00,34.2,15.0,30.22,WNW,293,6.7,9.8,45,0.00,,,0.00,WUHU216HW,2013-04-04 08:37:00,
2013-04-04 04:42:00,34.2,15.0,30.23,West,270,8.5,9.2,45,0.00,,,0.00,WUHU216HW,2013-04-04 08:42:00,
2013-04-04 04:47:00,34.2,15.4,30.23,West,270,7.2,9.2,46,0.00,,,0.00,WUHU216HW,2013-04-04 08:47:00,
2013-04-04 04:52:00,34.0,15.3,30.24,WSW,248,6.7,7.6,46,0.00,,,0.00,WUHU216HW,2013-04-04 08:52:00,
2013-04-04 04:57:00,34.0,14.2,30.24,West,270,6.0,6.7,44,0.00,,,0.00,WUHU216HW,2013-04-04 08:57:00,
2013-04-04 05:02:00,34.0,14.2,30.24,WSW,248,10.1,10.1,44,0.00,,,0.00,WUHU216HW,2013-04-04 09:02:00,
2013-04-04 05:07:00,33.8,14.0,30.24,West,270,6.7,10.1,44,0.00,,,0.00,WUHU216HW,2013-04-04 09:07:00,
2013-04-04 05:12:00,33.8,14.6,30.24,WSW,248,7.8,9.8,45,0.00,,,0.00,WUHU216HW,2013-04-04 09:12:00,
2013-04-04 05:17:00,33.8,14.0,30.24,West,270,7.4,9.8,44,0.00,,,0.00,WUHU216HW,2013-04-04 09:17:00,
2013-04-04 05:22:00,33.8,13.6,30.24,WNW,293,6.9,8.7,43,0.00,,,0.00,WUHU216HW,2013-04-04 09:22:00,
2013-04-04 05:27:00,33.8,14.0,30.24,West,270,6.3,8.7,44,0.00,,,0.00,WUHU216HW,2013-04-04 09:27:00,
2013-04-04 05:32:00,33.7,13.4,30.24,West,270,7.4,8.9,43,0.00,,,0.00,WUHU216HW,2013-04-04 09:32:00,
2013-04-04 05:37:00,33.7,14.0,30.24,WNW,293,6.9,10.7,44,0.00,,,0.00,WUHU216HW,2013-04-04 09:37:00,
2013-04-04 05:42:00,33.5,14.2,30.25,WNW,293,7.8,10.7,45,0.00,,,0.00,WUHU216HW,2013-04-04 09:42:00,
2013-04-04 05:47:00,33.5,14.8,30.25,WNW,293,10.5,10.5,46,0.00,,,0.00,WUHU216HW,2013-04-04 09:47:00,
2013-04-04 05:52:00,33.5,14.8,30.25,WNW,293,10.5,10.5,46,0.00,,,0.00,WUHU216HW,2013-04-04 09:52:00,
2013-04-04 05:57:00,33.3,14.6,30.25,West,270,8.5,10.5,46,0.00,,,0.00,WUHU216HW,2013-04-04 09:57:00,
2013-04-04 06:02:00,33.3,15.6,30.25,WNW,293,8.7,9.6,48,0.00,,,0.00,WUHU216HW,2013-04-04 10:02:00,
2013-04-04 06:07:00,33.3,16.1,30.26,WNW,293,6.7,9.2,49,0.00,,,0.00,WUHU216HW,2013-04-04 10:07:00,
2013-04-04 06:12:00,33.3,15.1,30.26,NW,315,6.7,8.9,47,0.00,,,0.00,WUHU216HW,2013-04-04 10:12:00,
2013-04-04 06:17:00,33.1,14.9,30.26,ESE,113,1.1,6.7,47,0.00,,,0.00,WUHU216HW,2013-04-04 10:17:00,
2013-04-04 06:23:00,32.6,14.5,30.26,ENE,68,3.1,4.0,47,0.00,,,0.00,WUHU216HW,2013-04-04 10:23:00,
2013-04-04 06:28:00,31.7,13.7,30.26,ESE,113,3.8,4.0,47,0.00,,,0.00,WUHU216HW,2013-04-04 10:28:00,
2013-04-04 06:33:00,30.8,13.3,30.26,East,90,1.3,3.8,48,0.00,,,0.00,WUHU216HW,2013-04-04 10:33:00,
2013-04-04 06:38:00,30.2,12.9,30.26,ESE,113,2.2,3.8,48,0.00,,,0.00,WUHU216HW,2013-04-04 10:38:00,
2013-04-04 06:43:00,29.7,12.9,30.26,SE,135,2.5,3.1,49,0.00,,,0.00,WUHU216HW,2013-04-04 10:43:00,
2013-04-04 06:48:00,29.2,12.9,30.27,ESE,113,3.4,3.8,50,0.00,,,0.00,WUHU216HW,2013-04-04 10:48:00,
2013-04-04 06:53:00,29.0,13.1,30.27,ESE,113,2.9,3.8,51,0.00,,,0.00,WUHU216HW,2013-04-04 10:53:00,
2013-04-04 06:58:00,28.6,13.2,30.27,SE,135,2.5,3.4,52,0.00,,,0.00,WUHU216HW,2013-04-04 10:58:00,
2013-04-04 07:03:00,28.6,13.2,30.27,ESE,113,2.7,4.0,52,0.00,,,0.00,WUHU216HW,2013-04-04 11:03:00,
2013-04-04 07:08:00,28.6,13.2,30.27,ESE,113,4.5,4.5,52,0.00,,,0.00,WUHU216HW,2013-04-04 11:08:00,
2013-04-04 07:13:00,28.8,13.4,30.27,SSE,158,1.1,4.5,52,0.00,,,0.00,WUHU216HW,2013-04-04 11:13:00,
2013-04-04 07:18:00,29.2,13.7,30.27,ESE,113,3.1,3.4,52,0.00,,,0.00,WUHU216HW,2013-04-04 11:18:00,
2013-04-04 07:23:00,29.3,13.9,30.27,SE,135,2.5,3.4,52,0.00,,,0.00,WUHU216HW,2013-04-04 11:23:00,
2013-04-04 07:28:00,29.5,14.0,30.27,ESE,113,2.0,2.7,52,0.00,,,0.00,WUHU216HW,2013-04-04 11:28:00,
2013-04-04 07:33:00,29.5,14.0,30.27,ESE,113,2.0,2.5,52,0.00,,,0.00,WUHU216HW,2013-04-04 11:33:00,
2013-04-04 07:55:00,31.3,15.7,30.27,SE,135,5.4,5.4,52,0.00,,,0.00,WUHU216HW,2013-04-04 11:55:00,
2013-04-04 08:00:00,31.3,16.1,30.28,SE,135,4.0,6.0,53,0.00,,,0.00,WUHU216HW,2013-04-04 12:00:00,
2013-04-04 08:05:00,31.5,16.3,30.28,SSE,158,1.1,6.0,53,0.00,,,0.00,WUHU216HW,2013-04-04 12:05:00,
2013-04-04 08:10:00,31.7,16.5,30.28,SE,135,4.0,5.1,53,0.00,,,0.00,WUHU216HW,2013-04-04 12:10:00,
2013-04-04 08:15:00,32.0,16.7,30.27,SE,135,4.0,4.7,53,0.00,,,0.00,WUHU216HW,2013-04-04 12:15:00,
2013-04-04 08:20:00,32.4,17.6,30.28,ESE,113,3.8,4.9,54,0.00,,,0.00,WUHU216HW,2013-04-04 12:20:00,
2013-04-04 08:25:00,32.6,17.7,30.27,SE,135,4.9,4.9,54,0.00,,,0.00,WUHU216HW,2013-04-04 12:25:00,
2013-04-04 08:30:00,33.1,17.7,30.27,ESE,113,4.3,4.9,53,0.00,,,0.00,WUHU216HW,2013-04-04 12:30:00,
2013-04-04 08:35:00,33.5,18.1,30.27,SE,135,5.1,5.8,53,0.00,,,0.00,WUHU216HW,2013-04-04 12:35:00,
2013-04-04 08:40:00,33.8,18.0,30.27,SE,135,3.6,7.2,52,0.00,,,0.00,WUHU216HW,2013-04-04 12:40:00,
2013-04-04 08:45:00,34.0,18.2,30.27,SE,135,2.9,6.7,52,0.00,,,0.00,WUHU216HW,2013-04-04 12:45:00,
2013-04-04 08:50:00,34.2,17.9,30.26,South,180,3.1,5.6,51,0.00,,,0.00,WUHU216HW,2013-04-04 12:50:00,
2013-04-04 08:55:00,34.4,18.1,30.26,ESE,113,6.7,6.7,51,0.00,,,0.00,WUHU216HW,2013-04-04 12:55:00,
2013-04-04 09:00:00,34.7,18.0,30.26,ESE,113,5.6,6.7,50,0.00,,,0.00,WUHU216HW,2013-04-04 13:00:00,
2013-04-04 09:05:00,34.9,18.2,30.26,ESE,113,3.1,6.7,50,0.00,,,0.00,WUHU216HW,2013-04-04 13:05:00,
2013-04-04 09:10:00,35.3,18.0,30.26,SE,135,2.0,7.2,49,0.00,,,0.00,WUHU216HW,2013-04-04 13:10:00,
2013-04-04 09:15:00,35.6,18.4,30.26,ESE,113,8.7,8.7,49,0.00,,,0.00,WUHU216HW,2013-04-04 13:15:00,
2013-04-04 09:20:00,35.8,18.0,30.26,SE,135,6.9,8.7,48,0.00,,,0.00,WUHU216HW,2013-04-04 13:20:00,
2013-04-04 09:25:00,36.2,18.4,30.26,SE,135,6.3,8.7,48,0.00,,,0.00,WUHU216HW,2013-04-04 13:25:00,
2013-04-04 09:30:00,36.4,18.0,30.26,SE,135,8.1,8.7,47,0.00,,,0.00,WUHU216HW,2013-04-04 13:30:00,
2013-04-04 09:35:00,36.4,18.0,30.26,SE,135,8.9,8.9,47,0.00,,,0.00,WUHU216HW,2013-04-04 13:35:00,
2013-04-04 09:40:00,36.7,17.8,30.25,ESE,113,9.8,9.8,46,0.00,,,0.00,WUHU216HW,2013-04-04 13:40:00,
2013-04-04 09:45:00,37.1,18.1,30.25,ESE,113,8.3,10.5,46,0.00,,,0.00,WUHU216HW,2013-04-04 13:45:00,
2013-04-04 09:50:00,37.6,18.1,30.25,ESE,113,4.7,10.5,45,0.00,,,0.00,WUHU216HW,2013-04-04 13:50:00,
2013-04-04 09:55:00,38.0,18.4,30.25,ESE,113,6.9,8.9,45,0.00,,,0.00,WUHU216HW,2013-04-04 13:55:00,
2013-04-04 10:00:00,38.3,18.7,30.25,SSE,158,4.7,8.9,45,0.00,,,0.00,WUHU216HW,2013-04-04 14:00:00,
2013-04-04 10:05:00,38.5,18.4,30.24,SSE,158,2.9,8.3,44,0.00,,,0.00,WUHU216HW,2013-04-04 14:05:00,
2013-04-04 10:10:00,38.9,17.6,30.24,East,90,4.9,8.3,42,0.00,,,0.00,WUHU216HW,2013-04-04 14:10:00,
2013-04-04 10:15:00,39.1,18.4,30.24,NNW,338,4.0,5.6,43,0.00,,,0.00,WUHU216HW,2013-04-04 14:15:00,
2013-04-04 10:20:00,39.2,18.0,30.24,SSW,203,8.7,8.7,42,0.00,,,0.00,WUHU216HW,2013-04-04 14:20:00,
2013-04-04 10:25:00,39.4,18.1,30.23,SW,225,2.0,8.7,42,0.00,,,0.00,WUHU216HW,2013-04-04 14:25:00,
2013-04-04 10:30:00,39.8,18.5,30.23,ESE,113,6.5,8.5,42,0.00,,,0.00,WUHU216HW,2013-04-04 14:30:00,
2013-04-04 10:35:00,40.1,18.3,30.22,SE,135,6.9,8.5,41,0.00,,,0.00,WUHU216HW,2013-04-04 14:35:00,
2013-04-04 10:40:00,40.5,18.1,30.22,SE,135,9.6,10.7,40,0.00,,,0.00,WUHU216HW,2013-04-04 14:40:00,
2013-04-04 10:45:00,40.7,18.2,30.21,SE,135,7.2,10.7,40,0.00,,,0.00,WUHU216HW,2013-04-04 14:45:00,
2013-04-04 10:50:00,41.0,18.5,30.21,SE,135,8.3,11.6,40,0.00,,,0.00,WUHU216HW,2013-04-04 14:50:00,
2013-04-04 10:55:00,41.4,18.9,30.21,SE,135,9.2,11.6,40,0.00,,,0.00,WUHU216HW,2013-04-04 14:55:00,
2013-04-04 11:00:00,41.6,18.4,30.20,SE,135,8.7,11.0,39,0.00,,,0.00,WUHU216HW,2013-04-04 15:00:00,
2013-04-04 11:05:00,41.8,18.6,30.20,ESE,113,11.2,11.6,39,0.00,,,0.00,WUHU216HW,2013-04-04 15:05:00,
2013-04-04 11:10:00,41.9,18.0,30.20,ESE,113,10.3,11.6,38,0.00,,,0.00,WUHU216HW,2013-04-04 15:10:00,
2013-04-04 11:15:00,42.5,18.6,30.19,SSE,158,5.8,11.2,38,0.00,,,0.00,WUHU216HW,2013-04-04 15:15:00,
2013-04-04 11:20:00,42.8,18.8,30.18,ESE,113,10.7,11.9,38,0.00,,,0.00,WUHU216HW,2013-04-04 15:20:00,
2013-04-04 11:25:00,43.2,19.2,30.18,ESE,113,12.1,13.6,38,0.00,,,0.00,WUHU216HW,2013-04-04 15:25:00,
2013-04-04 11:30:00,43.4,19.4,30.18,SSE,158,8.7,13.6,38,0.00,,,0.00,WUHU216HW,2013-04-04 15:30:00,
2013-04-04 11:35:00,43.6,19.4,30.17,ESE,113,5.8,13.4,38,0.00,,,0.00,WUHU216HW,2013-04-04 15:35:00,
2013-04-04 11:40:00,43.9,19.2,30.17,ESE,113,9.2,11.4,37,0.00,,,0.00,WUHU216HW,2013-04-04 15:40:00,
2013-04-04 11:45:00,44.3,19.4,30.17,SE,135,6.0,12.8,37,0.00,,,0.00,WUHU216HW,2013-04-04 15:45:00,
2013-04-04 11:50:00,44.8,20.0,30.16,SE,135,10.5,12.8,37,0.00,,,0.00,WUHU216HW,2013-04-04 15:50:00,
2013-04-04 11:55:00,45.2,18.9,30.16,ESE,113,7.2,12.1,35,0.00,,,0.00,WUHU216HW,2013-04-04 15:55:00,
2013-04-04 12:00:00,45.5,19.9,30.16,ESE,113,12.5,12.5,36,0.00,,,0.00,WUHU216HW,2013-04-04 16:00:00,
2013-04-04 12:05:00,45.7,19.5,30.16,SSE,158,5.6,12.5,35,0.00,,,0.00,WUHU216HW,2013-04-04 16:05:00,
2013-04-04 12:10:00,46.1,20.4,30.16,SSE,158,9.2,16.3,36,0.00,,,0.00,WUHU216HW,2013-04-04 16:10:00,
2013-04-04 12:15:00,46.3,19.9,30.15,SSE,158,12.5,16.3,35,0.00,,,0.00,WUHU216HW,2013-04-04 16:15:00,
2013-04-04 12:20:00,46.1,19.7,30.15,SE,135,14.1,16.3,35,0.00,,,0.00,WUHU216HW,2013-04-04 16:20:00,
2013-04-04 12:25:00,46.3,18.5,30.14,ESE,113,9.4,14.3,33,0.00,,,0.00,WUHU216HW,2013-04-04 16:25:00,
2013-04-04 12:30:00,46.4,20.1,30.14,SE,135,13.9,15.0,35,0.00,,,0.00,WUHU216HW,2013-04-04 16:30:00,
2013-04-04 12:36:00,46.4,20.1,30.13,SE,135,13.6,18.3,35,0.00,,,0.00,WUHU216HW,2013-04-04 16:36:00,
2013-04-04 12:41:00,47.0,19.3,30.13,East,90,17.7,18.3,33,0.00,,,0.00,WUHU216HW,2013-04-04 16:41:00,
2013-04-04 12:45:00,47.2,20.1,30.13,SE,135,17.2,17.7,34,0.00,,,0.00,WUHU216HW,2013-04-04 16:45:00,
2013-04-04 12:50:00,47.5,20.3,30.13,SE,135,16.8,17.2,34,0.00,,,0.00,WUHU216HW,2013-04-04 16:50:00,
2013-04-04 12:55:00,47.5,19.7,30.12,SE,135,12.8,16.8,33,0.00,,,0.00,WUHU216HW,2013-04-04 16:55:00,
2013-04-04 13:01:00,47.9,20.7,30.12,ESE,113,15.7,16.3,34,0.00,,,0.00,WUHU216HW,2013-04-04 17:01:00,
2013-04-04 13:06:00,47.9,20.7,30.12,SSE,158,13.2,17.0,34,0.00,,,0.00,WUHU216HW,2013-04-04 17:06:00,
2013-04-04 13:11:00,48.2,21.1,30.12,SSE,158,17.9,17.9,34,0.00,,,0.00,WUHU216HW,2013-04-04 17:11:00,
2013-04-04 13:16:00,48.2,20.3,30.11,SE,135,13.0,17.9,33,0.00,,,0.00,WUHU216HW,2013-04-04 17:16:00,
2013-04-04 13:21:00,48.4,20.5,30.11,SE,135,16.3,17.4,33,0.00,,,0.00,WUHU216HW,2013-04-04 17:21:00,
2013-04-04 13:26:00,48.6,21.3,30.10,SE,135,17.7,17.7,34,0.00,,,0.00,WUHU216HW,2013-04-04 17:26:00,
2013-04-04 13:31:00,49.0,21.0,30.10,ESE,113,16.6,17.7,33,0.00,,,0.00,WUHU216HW,2013-04-04 17:31:00,
2013-04-04 13:36:00,49.3,22.0,30.10,ESE,113,14.1,16.6,34,0.00,,,0.00,WUHU216HW,2013-04-04 17:36:00,
2013-04-04 13:41:00,49.7,21.5,30.09,SSE,158,10.5,15.4,33,0.00,,,0.00,WUHU216HW,2013-04-04 17:41:00,
2013-04-04 13:46:00,49.7,21.5,30.09,East,90,8.5,15.4,33,0.00,,,0.00,WUHU216HW,2013-04-04 17:46:00,
2013-04-04 14:00:00,51.1,22.1,30.08,SSE,158,7.4,7.4,32,0.00,,,0.00,WUHU216HW,2013-04-04 18:00:00,
2013-04-04 14:05:00,51.5,21.8,30.08,SE,135,8.3,8.7,31,0.00,,,0.00,WUHU216HW,2013-04-04 18:05:00,
2013-04-04 14:10:00,51.8,22.2,30.08,South,180,11.4,11.4,31,0.00,,,0.00,WUHU216HW,2013-04-04 18:10:00,
2013-04-04 14:15:00,52.0,23.0,30.08,ESE,113,9.8,14.5,32,0.00,,,0.00,WUHU216HW,2013-04-04 18:15:00,
2013-04-04 14:20:00,52.0,23.0,30.07,ESE,113,10.7,16.3,32,0.00,,,0.00,WUHU216HW,2013-04-04 18:20:00,
2013-04-04 14:25:00,52.4,23.3,30.06,ESE,113,10.5,16.3,32,0.00,,,0.00,WUHU216HW,2013-04-04 18:25:00,
2013-04-04 14:30:00,52.7,22.2,30.06,SE,135,7.6,12.8,30,0.00,,,0.00,WUHU216HW,2013-04-04 18:30:00,
2013-04-04 14:35:00,52.9,23.0,30.06,SSE,158,4.5,12.3,31,0.00,,,0.00,WUHU216HW,2013-04-04 18:35:00,
2013-04-04 14:40:00,53.1,24.0,30.06,SE,135,8.1,13.2,32,0.00,,,0.00,WUHU216HW,2013-04-04 18:40:00,
2013-04-04 14:45:00,53.5,23.6,30.05,SE,135,13.4,15.7,31,0.00,,,0.00,WUHU216HW,2013-04-04 18:45:00,
2013-04-04 14:50:00,53.6,23.8,30.05,ESE,113,3.4,15.7,31,0.00,,,0.00,WUHU216HW,2013-04-04 18:50:00,
2013-04-04 14:55:00,53.6,23.8,30.05,SE,135,8.7,14.8,31,0.00,,,0.00,WUHU216HW,2013-04-04 18:55:00,
2013-04-04 15:00:00,53.8,23.9,30.04,ESE,113,12.3,14.8,31,0.00,,,0.00,WUHU216HW,2013-04-04 19:00:00,
2013-04-04 15:05:00,53.8,23.9,30.04,ESE,113,11.6,16.3,31,0.00,,,0.00,WUHU216HW,2013-04-04 19:05:00,
2013-04-04 15:10:00,53.8,23.9,30.03,ESE,113,13.6,16.3,31,0.00,,,0.00,WUHU216HW,2013-04-04 19:10:00,
2013-04-04 15:15:00,53.6,23.0,30.03,SE,135,11.2,17.4,30,0.00,,,0.00,WUHU216HW,2013-04-04 19:15:00,
2013-04-04 15:20:00,53.8,23.9,30.03,ESE,113,13.4,17.4,31,0.00,,,0.00,WUHU216HW,2013-04-04 19:20:00,
2013-04-04 15:25:00,54.2,24.8,30.02,SE,135,12.3,14.5,32,0.00,,,0.00,WUHU216HW,2013-04-04 19:25:00,
2013-04-04 15:30:00,54.4,25.0,30.02,SSE,158,13.4,20.6,32,0.00,,,0.00,WUHU216HW,2013-04-04 19:30:00,
2013-04-04 15:36:00,54.4,25.0,30.01,SE,135,15.0,20.6,32,0.00,,,0.00,WUHU216HW,2013-04-04 19:36:00,
2013-04-04 15:41:00,54.5,25.1,30.01,SE,135,14.3,19.7,32,0.00,,,0.00,WUHU216HW,2013-04-04 19:41:00,
2013-04-04 15:46:00,54.5,25.1,30.00,East,90,9.4,22.1,32,0.00,,,0.00,WUHU216HW,2013-04-04 19:46:00,
2013-04-04 15:51:00,55.3,25.8,30.00,SE,135,12.3,22.1,32,0.00,,,0.00,WUHU216HW,2013-04-04 19:51:00,
2013-04-04 15:56:00,55.4,25.9,30.00,SE,135,15.0,19.7,32,0.00,,,0.00,WUHU216HW,2013-04-04 19:56:00,
2013-04-04 16:01:00,55.6,26.0,29.99,SSE,158,9.8,19.7,32,0.00,,,0.00,WUHU216HW,2013-04-04 20:01:00,
2013-04-04 16:06:00,56.2,25.8,29.99,SSE,158,15.7,16.8,31,0.00,,,0.00,WUHU216HW,2013-04-04 20:06:00,
2013-04-04 16:11:00,56.0,25.7,29.98,SE,135,15.0,17.4,31,0.00,,,0.00,WUHU216HW,2013-04-04 20:11:00,
2013-04-04 16:16:00,56.3,26.0,29.98,ESE,113,14.8,18.6,31,0.00,,,0.00,WUHU216HW,2013-04-04 20:16:00,
2013-04-04 16:21:00,56.2,25.8,29.98,SE,135,15.2,18.6,31,0.00,,,0.00,WUHU216HW,2013-04-04 20:21:00,
2013-04-04 16:26:00,57.2,26.1,29.98,ESE,113,15.7,17.9,30,0.00,,,0.00,WUHU216HW,2013-04-04 20:26:00,
2013-04-04 16:31:00,59.0,26.7,29.98,SE,135,15.0,15.7,29,0.00,,,0.00,WUHU216HW,2013-04-04 20:31:00,
2013-04-04 16:36:00,60.3,26.8,29.97,SE,135,11.0,16.1,28,0.00,,,0.00,WUHU216HW,2013-04-04 20:36:00,
2013-04-04 16:41:00,61.0,27.5,29.97,ESE,113,10.5,18.6,28,0.00,,,0.00,WUHU216HW,2013-04-04 20:41:00,
2013-04-04 16:46:00,62.5,28.7,29.97,SE,135,11.6,18.6,28,0.00,,,0.00,WUHU216HW,2013-04-04 20:46:00,
2013-04-04 16:51:00,63.2,27.4,29.96,SE,135,9.2,13.4,26,0.00,,,0.00,WUHU216HW,2013-04-04 20:51:00,
2013-04-04 16:56:00,63.4,26.6,29.96,SSE,158,7.6,13.4,25,0.00,,,0.00,WUHU216HW,2013-04-04 20:56:00,
2013-04-04 17:01:00,63.7,26.8,29.96,SW,225,6.9,12.8,25,0.00,,,0.00,WUHU216HW,2013-04-04 21:01:00,
2013-04-04 17:06:00,64.1,27.2,29.96,SE,135,15.0,15.0,25,0.00,,,0.00,WUHU216HW,2013-04-04 21:06:00,
2013-04-04 17:11:00,63.9,28.0,29.96,SE,135,4.7,15.0,26,0.00,,,0.00,WUHU216HW,2013-04-04 21:11:00,
2013-04-04 17:16:00,63.9,28.0,29.96,SE,135,6.9,11.9,26,0.00,,,0.00,WUHU216HW,2013-04-04 21:16:00,
2013-04-04 17:22:00,63.9,28.0,29.96,SE,135,6.9,6.9,26,0.00,,,0.00,WUHU216HW,2013-04-04 21:22:00,
2013-04-04 17:42:00,62.6,25.9,29.96,SE,135,12.8,12.8,25,0.00,,,0.00,WUHU216HW,2013-04-04 21:42:00,
2013-04-04 17:47:00,63.5,26.7,29.96,SSE,158,11.0,15.7,25,0.00,,,0.00,WUHU216HW,2013-04-04 21:47:00,
2013-04-04 17:52:00,63.4,26.6,29.96,SE,135,11.4,15.7,25,0.00,,,0.00,WUHU216HW,2013-04-04 21:52:00,
2013-04-04 17:57:00,63.0,26.2,29.97,ESE,113,8.3,14.8,25,0.00,,,0.00,WUHU216HW,2013-04-04 21:57:00,
2013-04-04 18:02:00,62.6,25.9,29.97,SE,135,7.6,14.3,25,0.00,,,0.00,WUHU216HW,2013-04-04 22:02:00,
2013-04-04 18:07:00,63.0,26.2,29.97,SE,135,11.0,12.8,25,0.00,,,0.00,WUHU216HW,2013-04-04 22:07:00,
2013-04-04 18:12:00,62.3,25.7,29.97,SE,135,7.8,12.5,25,0.00,,,0.00,WUHU216HW,2013-04-04 22:12:00,
2013-04-04 18:17:00,62.6,26.9,29.97,SE,135,7.6,12.5,26,0.00,,,0.00,WUHU216HW,2013-04-04 22:17:00,
2013-04-04 18:22:00,64.1,27.2,29.97,SE,135,11.0,11.6,25,0.00,,,0.00,WUHU216HW,2013-04-04 22:22:00,
2013-04-04 18:27:00,64.1,26.2,29.97,ESE,113,11.6,11.6,24,0.00,,,0.00,WUHU216HW,2013-04-04 22:27:00,
2013-04-04 18:32:00,63.7,26.8,29.98,SSE,158,11.2,11.6,25,0.00,,,0.00,WUHU216HW,2013-04-04 22:32:00,
2013-04-04 18:37:00,62.3,25.7,29.98,SE,135,11.4,11.6,25,0.00,,,0.00,WUHU216HW,2013-04-04 22:37:00,
2013-04-04 18:42:00,61.6,24.0,29.98,SE,135,7.6,11.4,24,0.00,,,0.00,WUHU216HW,2013-04-04 22:42:00,
2013-04-04 18:47:00,61.2,24.7,29.98,SE,135,11.4,11.4,25,0.00,,,0.00,WUHU216HW,2013-04-04 22:47:00,
2013-04-04 18:52:00,59.8,23.5,29.97,ESE,113,7.6,11.4,25,0.00,,,0.00,WUHU216HW,2013-04-04 22:52:00,
2013-04-04 18:57:00,57.4,23.4,29.98,SE,135,9.8,11.0,27,0.00,,,0.00,WUHU216HW,2013-04-04 22:57:00,
2013-04-04 19:02:00,56.0,23.0,29.98,SE,135,9.2,10.1,28,0.00,,,0.00,WUHU216HW,2013-04-04 23:02:00,
2013-04-04 19:07:00,54.7,23.0,29.98,ESE,113,8.5,9.2,29,0.00,,,0.00,WUHU216HW,2013-04-04 23:07:00,
2013-04-04 19:12:00,53.3,21.8,29.98,SE,135,8.7,9.2,29,0.00,,,0.00,WUHU216HW,2013-04-04 23:12:00,
2013-04-04 19:17:00,52.2,21.8,29.98,ESE,113,9.2,9.2,30,0.00,,,0.00,WUHU216HW,2013-04-04 23:17:00,
2013-04-04 19:22:00,51.3,21.6,29.98,SE,135,5.8,9.2,31,0.00,,,0.00,WUHU216HW,2013-04-04 23:22:00,
2013-04-04 19:27:00,50.6,21.7,29.98,SE,135,8.5,8.9,32,0.00,,,0.00,WUHU216HW,2013-04-04 23:27:00,
2013-04-04 19:32:00,50.0,21.2,29.98,ESE,113,7.2,8.5,32,0.00,,,0.00,WUHU216HW,2013-04-04 23:32:00,
2013-04-04 19:37:00,49.3,21.2,29.98,SE,135,7.6,7.8,33,0.00,,,0.00,WUHU216HW,2013-04-04 23:37:00,
2013-04-04 19:42:00,49.0,21.0,29.98,SE,135,6.7,8.9,33,0.00,,,0.00,WUHU216HW,2013-04-04 23:42:00,
2013-04-04 19:47:00,48.6,21.3,29.98,SE,135,6.9,8.9,34,0.00,,,0.00,WUHU216HW,2013-04-04 23:47:00,
2013-04-04 19:52:00,48.2,21.1,29.98,SE,135,6.7,8.3,34,0.00,,,0.00,WUHU216HW,2013-04-04 23:52:00,
2013-04-04 19:57:00,47.9,21.3,29.98,ESE,113,5.4,8.1,35,0.00,,,0.00,WUHU216HW,2013-04-04 23:57:00,
2013-04-04 20:02:00,47.7,21.9,29.98,SE,135,4.7,8.1,36,0.00,,,0.00,WUHU216HW,2013-04-05 00:02:00,
2013-04-04 20:07:00,47.3,21.5,29.98,SE,135,6.0,8.1,36,0.00,,,0.00,WUHU216HW,2013-04-05 00:07:00,
2013-04-04 20:13:00,47.0,20.5,29.98,SE,135,5.4,7.4,35,0.00,,,0.00,WUHU216HW,2013-04-05 00:13:00,
2013-04-04 20:18:00,46.4,20.7,29.98,SE,135,6.3,7.4,36,0.00,,,0.00,WUHU216HW,2013-04-05 00:18:00,
2013-04-04 20:23:00,46.4,20.7,29.98,ESE,113,5.6,6.9,36,0.00,,,0.00,WUHU216HW,2013-04-05 00:23:00,
2013-04-04 20:28:00,46.3,20.6,29.98,ESE,113,6.3,6.9,36,0.00,,,0.00,WUHU216HW,2013-04-05 00:28:00,
2013-04-04 20:33:00,46.1,20.4,29.98,ESE,113,7.2,7.2,36,0.00,,,0.00,WUHU216HW,2013-04-05 00:33:00,
2013-04-04 20:38:00,45.9,20.9,29.98,SE,135,7.4,8.9,37,0.00,,,0.00,WUHU216HW,2013-04-05 00:38:00,
2013-04-04 20:43:00,45.7,20.8,29.98,ESE,113,6.3,8.9,37,0.00,,,0.00,WUHU216HW,2013-04-05 00:43:00,
2013-04-04 20:48:00,45.5,20.6,29.98,ESE,113,5.4,7.6,37,0.00,,,0.00,WUHU216HW,2013-04-05 00:48:00,
2013-04-04 20:53:00,45.4,21.1,29.98,ESE,113,6.3,6.7,38,0.00,,,0.00,WUHU216HW,2013-04-05 00:53:00,
2013-04-04 20:58:00,45.2,21.0,29.98,SE,135,5.6,6.7,38,0.00,,,0.00,WUHU216HW,2013-04-05 00:58:00,
2013-04-04 21:03:00,45.0,20.8,29.98,ESE,113,5.1,6.3,38,0.00,,,0.00,WUHU216HW,2013-04-05 01:03:00,
2013-04-04 21:08:00,44.8,21.2,29.98,ESE,113,5.1,7.4,39,0.00,,,0.00,WUHU216HW,2013-04-05 01:08:00,
2013-04-04 21:13:00,44.6,21.2,29.98,ESE,113,6.5,7.4,39,0.00,,,0.00,WUHU216HW,2013-04-05 01:13:00,
2013-04-04 21:18:00,44.6,21.2,29.98,SE,135,5.4,6.5,39,0.00,,,0.00,WUHU216HW,2013-04-05 01:18:00,
2013-04-04 21:23:00,44.3,20.8,29.98,ESE,113,5.4,6.9,39,0.00,,,0.00,WUHU216HW,2013-04-05 01:23:00,
2013-04-04 21:28:00,44.1,21.3,29.98,SE,135,6.7,6.9,40,0.00,,,0.00,WUHU216HW,2013-04-05 01:28:00,
2013-04-04 21:33:00,43.9,21.2,29.98,SE,135,4.9,6.7,40,0.00,,,0.00,WUHU216HW,2013-04-05 01:33:00,
2013-04-04 21:38:00,43.7,21.0,29.98,SSE,158,5.8,6.9,40,0.00,,,0.00,WUHU216HW,2013-04-05 01:38:00,
2013-04-04 21:43:00,43.6,20.8,29.98,SE,135,6.3,6.9,40,0.00,,,0.00,WUHU216HW,2013-04-05 01:43:00,
2013-04-04 21:48:00,43.6,20.8,29.98,SE,135,6.0,6.5,40,0.00,,,0.00,WUHU216HW,2013-04-05 01:48:00,
2013-04-04 21:53:00,43.2,21.1,29.98,SE,135,6.7,6.7,41,0.00,,,0.00,WUHU216HW,2013-04-05 01:53:00,
2013-04-04 21:59:00,42.8,20.7,29.97,SE,135,4.7,6.7,41,0.00,,,0.00,WUHU216HW,2013-04-05 01:59:00,
2013-04-04 22:04:00,42.7,21.1,29.97,ESE,113,5.1,6.7,42,0.00,,,0.00,WUHU216HW,2013-04-05 02:04:00,
2013-04-04 22:09:00,42.5,20.9,29.96,SE,135,4.9,6.3,42,0.00,,,0.00,WUHU216HW,2013-04-05 02:09:00,
2013-04-04 22:14:00,42.5,20.9,29.96,ESE,113,4.7,6.3,42,0.00,,,0.00,WUHU216HW,2013-04-05 02:14:00,
2013-04-04 22:19:00,42.1,20.6,29.96,ESE,113,4.0,5.4,42,0.00,,,0.00,WUHU216HW,2013-04-05 02:19:00,
2013-04-04 22:24:00,41.9,20.4,29.96,ESE,113,5.4,5.4,42,0.00,,,0.00,WUHU216HW,2013-04-05 02:24:00,
2013-04-04 22:29:00,41.8,20.8,29.95,ESE,113,5.6,5.6,43,0.00,,,0.00,WUHU216HW,2013-04-05 02:29:00,
2013-04-04 22:34:00,41.6,20.6,29.95,ESE,113,4.3,5.6,43,0.00,,,0.00,WUHU216HW,2013-04-05 02:34:00,
2013-04-04 22:39:00,41.4,20.4,29.94,SE,135,4.9,5.4,43,0.00,,,0.00,WUHU216HW,2013-04-05 02:39:00,
2013-04-04 22:44:00,41.4,20.4,29.95,ESE,113,5.4,5.4,43,0.00,,,0.00,WUHU216HW,2013-04-05 02:44:00,
2013-04-04 22:49:00,41.2,20.3,29.94,ESE,113,5.1,5.4,43,0.00,,,0.00,WUHU216HW,2013-04-05 02:49:00,
2013-04-04 22:54:00,41.2,20.3,29.94,SE,135,2.9,5.1,43,0.00,,,0.00,WUHU216HW,2013-04-05 02:54:00,
2013-04-04 22:59:00,41.0,20.1,29.94,SE,135,2.9,4.7,43,0.00,,,0.00,WUHU216HW,2013-04-05 02:59:00,
2013-04-04 23:04:00,41.0,20.1,29.93,SE,135,3.4,4.0,43,0.00,,,0.00,WUHU216HW,2013-04-05 03:04:00,
2013-04-04 23:09:00,41.0,20.1,29.93,SE,135,4.3,4.3,43,0.00,,,0.00,WUHU216HW,2013-04-05 03:09:00,
2013-04-04 23:14:00,41.0,20.1,29.93,SE,135,4.7,4.7,43,0.00,,,0.00,WUHU216HW,2013-04-05 03:14:00,
2013-04-04 23:19:00,41.0,20.1,29.93,SE,135,3.4,4.7,43,0.00,,,0.00,WUHU216HW,2013-04-05 03:19:00,
2013-04-04 23:24:00,40.9,20.0,29.92,SE,135,3.4,4.5,43,0.00,,,0.00,WUHU216HW,2013-04-05 03:24:00,
2013-04-04 23:29:00,40.9,20.0,29.92,SE,135,4.3,4.3,43,0.00,,,0.00,WUHU216HW,2013-04-05 03:29:00,
2013-04-04 23:35:00,40.7,19.8,29.92,SE,135,4.7,4.7,43,0.00,,,0.00,WUHU216HW,2013-04-05 03:35:00,
2013-04-04 23:40:00,40.7,19.8,29.92,SSE,158,4.5,4.7,43,0.00,,,0.00,WUHU216HW,2013-04-05 03:40:00,
2013-04-04 23:45:00,40.7,20.4,29.92,SE,135,4.0,4.5,44,0.00,,,0.00,WUHU216HW,2013-04-05 03:45:00,
2013-04-04 23:50:00,40.3,20.0,29.91,SE,135,3.4,4.3,44,0.00,,,0.00,WUHU216HW,2013-04-05 03:50:00,
2013-04-04 23:55:00,40.0,19.6,29.91,SE,135,4.0,4.5,44,0.00,,,0.00,WUHU216HW,2013-04-05 03:55:00,